sensor_id;sensor_type;location;lat;lon;timestamp;P1;durP1;ratioP1;P2;durP2;ratioP2
68803;SDS011;55787;52.678;13.314;2024-02-15T00:00:24;13.10;;;5.30;;
68803;SDS011;55787;52.678;13.314;2024-02-15T00:02:53;12.07;;;4.95;;
68803;SDS011;55787;52.678;13.314;2024-02-15T00:05:20;12.20;;;4.90;;
68803;SDS011;55787;52.678;13.314;2024-02-15T00:07:47;12.32;;;4.70;;
68803;SDS011;55787;52.678;13.314;2024-02-15T00:10:15;13.53;;;5.67;;
68803;SDS011;55787;52.678;13.314;2024-02-15T00:12:41;13.50;;;5.35;;
68803;SDS011;55787;52.678;13.314;2024-02-15T00:15:08;12.75;;;5.03;;
68803;SDS011;55787;52.678;13.314;2024-02-15T00:17:35;12.30;;;4.95;;
68803;SDS011;55787;52.678;13.314;2024-02-15T00:20:02;12.50;;;5.13;;
68803;SDS011;55787;52.678;13.314;2024-02-15T00:22:36;14.37;;;5.33;;
68803;SDS011;55787;52.678;13.314;2024-02-15T00:25:03;14.50;;;5.10;;
68803;SDS011;55787;52.678;13.314;2024-02-15T00:27:32;13.65;;;5.13;;
68803;SDS011;55787;52.678;13.314;2024-02-15T00:30:02;12.52;;;5.07;;
68803;SDS011;55787;52.678;13.314;2024-02-15T00:32:29;15.73;;;5.22;;
68803;SDS011;55787;52.678;13.314;2024-02-15T00:34:56;14.77;;;5.57;;
68803;SDS011;55787;52.678;13.314;2024-02-15T00:37:23;12.07;;;4.80;;
68803;SDS011;55787;52.678;13.314;2024-02-15T00:39:50;15.60;;;5.60;;
68803;SDS011;55787;52.678;13.314;2024-02-15T00:42:16;13.45;;;4.88;;
68803;SDS011;55787;52.678;13.314;2024-02-15T00:44:43;14.65;;;5.28;;
68803;SDS011;55787;52.678;13.314;2024-02-15T00:47:10;14.70;;;4.53;;
68803;SDS011;55787;52.678;13.314;2024-02-15T00:49:38;13.95;;;5.10;;
68803;SDS011;55787;52.678;13.314;2024-02-15T00:52:05;15.98;;;6.05;;
68803;SDS011;55787;52.678;13.314;2024-02-15T00:54:32;14.77;;;5.88;;
68803;SDS011;55787;52.678;13.314;2024-02-15T00:56:58;15.63;;;6.32;;
68803;SDS011;55787;52.678;13.314;2024-02-15T00:59:25;15.53;;;6.03;;
68803;SDS011;55787;52.678;13.314;2024-02-15T01:01:51;13.98;;;5.30;;
68803;SDS011;55787;52.678;13.314;2024-02-15T01:04:19;13.45;;;5.55;;
68803;SDS011;55787;52.678;13.314;2024-02-15T01:06:46;14.95;;;5.85;;
68803;SDS011;55787;52.678;13.314;2024-02-15T01:09:13;14.10;;;6.05;;
68803;SDS011;55787;52.678;13.314;2024-02-15T01:11:40;14.53;;;5.07;;
68803;SDS011;55787;52.678;13.314;2024-02-15T01:14:07;16.17;;;6.07;;
68803;SDS011;55787;52.678;13.314;2024-02-15T01:16:36;15.52;;;5.90;;
68803;SDS011;55787;52.678;13.314;2024-02-15T01:19:03;12.57;;;5.18;;
68803;SDS011;55787;52.678;13.314;2024-02-15T01:21:30;13.68;;;5.68;;
68803;SDS011;55787;52.678;13.314;2024-02-15T01:23:59;15.95;;;6.07;;
68803;SDS011;55787;52.678;13.314;2024-02-15T01:26:27;14.65;;;5.60;;
68803;SDS011;55787;52.678;13.314;2024-02-15T01:28:53;15.70;;;6.40;;
68803;SDS011;55787;52.678;13.314;2024-02-15T01:31:20;14.80;;;6.22;;
68803;SDS011;55787;52.678;13.314;2024-02-15T01:33:47;16.05;;;6.40;;
68803;SDS011;55787;52.678;13.314;2024-02-15T01:36:18;16.00;;;6.20;;
68803;SDS011;55787;52.678;13.314;2024-02-15T01:38:44;15.60;;;6.18;;
68803;SDS011;55787;52.678;13.314;2024-02-15T01:41:12;13.90;;;5.25;;
68803;SDS011;55787;52.678;13.314;2024-02-15T01:43:42;15.35;;;5.88;;
68803;SDS011;55787;52.678;13.314;2024-02-15T01:46:11;15.70;;;6.35;;
68803;SDS011;55787;52.678;13.314;2024-02-15T01:48:38;16.37;;;6.10;;
68803;SDS011;55787;52.678;13.314;2024-02-15T01:51:06;17.92;;;6.53;;
68803;SDS011;55787;52.678;13.314;2024-02-15T01:53:34;16.50;;;6.65;;
68803;SDS011;55787;52.678;13.314;2024-02-15T01:56:01;16.83;;;5.93;;
68803;SDS011;55787;52.678;13.314;2024-02-15T01:58:28;13.90;;;5.57;;
68803;SDS011;55787;52.678;13.314;2024-02-15T02:00:58;16.20;;;5.90;;
68803;SDS011;55787;52.678;13.314;2024-02-15T02:03:26;16.60;;;6.30;;
68803;SDS011;55787;52.678;13.314;2024-02-15T02:05:53;15.75;;;5.82;;
68803;SDS011;55787;52.678;13.314;2024-02-15T02:08:20;10.80;;;3.35;;
68803;SDS011;55787;52.678;13.314;2024-02-15T02:10:48;16.85;;;6.40;;
68803;SDS011;55787;52.678;13.314;2024-02-15T02:13:15;13.90;;;5.40;;
68803;SDS011;55787;52.678;13.314;2024-02-15T02:15:41;14.93;;;5.63;;
68803;SDS011;55787;52.678;13.314;2024-02-15T02:18:08;15.88;;;5.90;;
68803;SDS011;55787;52.678;13.314;2024-02-15T02:20:36;14.77;;;5.90;;
68803;SDS011;55787;52.678;13.314;2024-02-15T02:23:21;15.45;;;5.68;;
68803;SDS011;55787;52.678;13.314;2024-02-15T02:25:52;14.77;;;5.60;;
68803;SDS011;55787;52.678;13.314;2024-02-15T02:28:21;14.95;;;5.40;;
68803;SDS011;55787;52.678;13.314;2024-02-15T02:30:48;13.82;;;5.28;;
68803;SDS011;55787;52.678;13.314;2024-02-15T02:33:15;15.55;;;5.93;;
68803;SDS011;55787;52.678;13.314;2024-02-15T02:35:46;16.48;;;6.25;;
68803;SDS011;55787;52.678;13.314;2024-02-15T02:38:14;15.20;;;5.83;;
68803;SDS011;55787;52.678;13.314;2024-02-15T02:40:41;15.60;;;5.70;;
68803;SDS011;55787;52.678;13.314;2024-02-15T02:43:08;17.20;;;6.20;;
68803;SDS011;55787;52.678;13.314;2024-02-15T02:45:35;16.38;;;5.90;;
68803;SDS011;55787;52.678;13.314;2024-02-15T02:48:03;16.00;;;5.97;;
68803;SDS011;55787;52.678;13.314;2024-02-15T02:50:30;15.80;;;5.93;;
68803;SDS011;55787;52.678;13.314;2024-02-15T02:52:56;16.63;;;6.50;;
68803;SDS011;55787;52.678;13.314;2024-02-15T02:55:23;18.25;;;6.68;;
68803;SDS011;55787;52.678;13.314;2024-02-15T02:57:49;16.20;;;6.10;;
68803;SDS011;55787;52.678;13.314;2024-02-15T03:00:16;16.05;;;5.75;;
68803;SDS011;55787;52.678;13.314;2024-02-15T03:02:44;16.13;;;6.33;;
68803;SDS011;55787;52.678;13.314;2024-02-15T03:05:12;16.25;;;6.70;;
68803;SDS011;55787;52.678;13.314;2024-02-15T03:07:39;14.90;;;5.75;;
68803;SDS011;55787;52.678;13.314;2024-02-15T03:10:07;21.73;;;7.20;;
68803;SDS011;55787;52.678;13.314;2024-02-15T03:12:35;17.13;;;6.20;;
68803;SDS011;55787;52.678;13.314;2024-02-15T03:15:03;17.43;;;6.70;;
68803;SDS011;55787;52.678;13.314;2024-02-15T03:17:30;16.17;;;6.00;;
68803;SDS011;55787;52.678;13.314;2024-02-15T03:20:00;18.15;;;6.35;;
68803;SDS011;55787;52.678;13.314;2024-02-15T03:22:27;15.95;;;6.25;;
68803;SDS011;55787;52.678;13.314;2024-02-15T03:24:55;16.20;;;6.47;;
68803;SDS011;55787;52.678;13.314;2024-02-15T03:27:22;15.80;;;6.37;;
68803;SDS011;55787;52.678;13.314;2024-02-15T03:29:49;15.02;;;5.78;;
68803;SDS011;55787;52.678;13.314;2024-02-15T03:32:17;17.00;;;6.55;;
68803;SDS011;55787;52.678;13.314;2024-02-15T03:34:44;16.48;;;6.05;;
68803;SDS011;55787;52.678;13.314;2024-02-15T03:37:11;17.13;;;6.15;;
68803;SDS011;55787;52.678;13.314;2024-02-15T03:39:38;18.23;;;6.33;;
68803;SDS011;55787;52.678;13.314;2024-02-15T03:42:05;15.60;;;5.55;;
68803;SDS011;55787;52.678;13.314;2024-02-15T03:44:32;17.23;;;6.10;;
68803;SDS011;55787;52.678;13.314;2024-02-15T03:46:59;16.33;;;6.15;;
68803;SDS011;55787;52.678;13.314;2024-02-15T03:49:25;16.77;;;5.80;;
68803;SDS011;55787;52.678;13.314;2024-02-15T03:51:53;17.17;;;6.03;;
68803;SDS011;55787;52.678;13.314;2024-02-15T03:54:21;17.55;;;6.10;;
68803;SDS011;55787;52.678;13.314;2024-02-15T03:56:49;17.65;;;6.15;;
68803;SDS011;55787;52.678;13.314;2024-02-15T03:59:19;13.30;;;5.20;;
68803;SDS011;55787;52.678;13.314;2024-02-15T04:01:53;18.88;;;6.38;;
68803;SDS011;55787;52.678;13.314;2024-02-15T04:04:20;18.70;;;5.77;;
68803;SDS011;55787;52.678;13.314;2024-02-15T04:06:50;15.98;;;6.25;;
68803;SDS011;55787;52.678;13.314;2024-02-15T04:09:18;16.33;;;6.15;;
68803;SDS011;55787;52.678;13.314;2024-02-15T04:11:47;15.07;;;5.35;;
68803;SDS011;55787;52.678;13.314;2024-02-15T04:14:16;17.00;;;6.05;;
68803;SDS011;55787;52.678;13.314;2024-02-15T04:16:44;16.83;;;5.83;;
68803;SDS011;55787;52.678;13.314;2024-02-15T04:19:11;17.88;;;5.90;;
68803;SDS011;55787;52.678;13.314;2024-02-15T04:21:38;15.30;;;5.70;;
68803;SDS011;55787;52.678;13.314;2024-02-15T04:24:06;15.80;;;5.60;;
68803;SDS011;55787;52.678;13.314;2024-02-15T04:26:33;15.27;;;5.38;;
68803;SDS011;55787;52.678;13.314;2024-02-15T04:29:00;16.97;;;6.03;;
68803;SDS011;55787;52.678;13.314;2024-02-15T04:31:26;16.17;;;6.35;;
68803;SDS011;55787;52.678;13.314;2024-02-15T04:33:53;17.27;;;6.03;;
68803;SDS011;55787;52.678;13.314;2024-02-15T04:36:21;15.98;;;5.63;;
68803;SDS011;55787;52.678;13.314;2024-02-15T04:38:51;17.98;;;6.47;;
68803;SDS011;55787;52.678;13.314;2024-02-15T04:41:19;17.77;;;6.27;;
68803;SDS011;55787;52.678;13.314;2024-02-15T04:43:46;17.38;;;6.40;;
68803;SDS011;55787;52.678;13.314;2024-02-15T04:46:13;18.02;;;6.05;;
68803;SDS011;55787;52.678;13.314;2024-02-15T04:48:41;16.95;;;5.65;;
68803;SDS011;55787;52.678;13.314;2024-02-15T04:51:10;16.83;;;6.03;;
68803;SDS011;55787;52.678;13.314;2024-02-15T04:53:37;16.57;;;5.50;;
68803;SDS011;55787;52.678;13.314;2024-02-15T04:56:05;17.05;;;6.30;;
68803;SDS011;55787;52.678;13.314;2024-02-15T04:58:37;18.02;;;6.30;;
68803;SDS011;55787;52.678;13.314;2024-02-15T05:01:14;17.60;;;6.05;;
68803;SDS011;55787;52.678;13.314;2024-02-15T05:03:42;16.88;;;6.38;;
68803;SDS011;55787;52.678;13.314;2024-02-15T05:06:09;16.67;;;6.20;;
68803;SDS011;55787;52.678;13.314;2024-02-15T05:08:39;19.05;;;6.28;;
68803;SDS011;55787;52.678;13.314;2024-02-15T05:11:09;16.58;;;5.90;;
68803;SDS011;55787;52.678;13.314;2024-02-15T05:13:44;21.70;;;6.40;;
68803;SDS011;55787;52.678;13.314;2024-02-15T05:16:11;19.92;;;6.47;;
68803;SDS011;55787;52.678;13.314;2024-02-15T05:18:38;19.43;;;6.50;;
68803;SDS011;55787;52.678;13.314;2024-02-15T05:21:06;18.40;;;6.28;;
68803;SDS011;55787;52.678;13.314;2024-02-15T05:23:36;17.88;;;6.57;;
68803;SDS011;55787;52.678;13.314;2024-02-15T05:26:06;19.38;;;6.35;;
68803;SDS011;55787;52.678;13.314;2024-02-15T05:28:32;18.63;;;6.25;;
68803;SDS011;55787;52.678;13.314;2024-02-15T05:31:15;19.87;;;6.37;;
68803;SDS011;55787;52.678;13.314;2024-02-15T05:33:43;18.45;;;6.03;;
68803;SDS011;55787;52.678;13.314;2024-02-15T05:36:11;17.65;;;6.32;;
68803;SDS011;55787;52.678;13.314;2024-02-15T05:38:39;17.02;;;5.93;;
68803;SDS011;55787;52.678;13.314;2024-02-15T05:41:06;19.08;;;6.47;;
68803;SDS011;55787;52.678;13.314;2024-02-15T05:43:34;19.70;;;6.00;;
68803;SDS011;55787;52.678;13.314;2024-02-15T05:46:03;16.73;;;5.82;;
68803;SDS011;55787;52.678;13.314;2024-02-15T05:48:30;19.88;;;6.32;;
68803;SDS011;55787;52.678;13.314;2024-02-15T05:50:57;17.67;;;6.25;;
68803;SDS011;55787;52.678;13.314;2024-02-15T05:53:27;19.10;;;6.30;;
68803;SDS011;55787;52.678;13.314;2024-02-15T05:55:54;18.83;;;5.90;;
68803;SDS011;55787;52.678;13.314;2024-02-15T05:58:21;17.02;;;5.25;;
68803;SDS011;55787;52.678;13.314;2024-02-15T06:00:48;16.67;;;5.90;;
68803;SDS011;55787;52.678;13.314;2024-02-15T06:03:18;17.13;;;5.85;;
68803;SDS011;55787;52.678;13.314;2024-02-15T06:05:48;19.02;;;6.45;;
68803;SDS011;55787;52.678;13.314;2024-02-15T06:08:15;17.93;;;6.50;;
68803;SDS011;55787;52.678;13.314;2024-02-15T06:10:41;19.75;;;6.53;;
68803;SDS011;55787;52.678;13.314;2024-02-15T06:13:08;19.13;;;6.63;;
68803;SDS011;55787;52.678;13.314;2024-02-15T06:15:35;16.90;;;6.28;;
68803;SDS011;55787;52.678;13.314;2024-02-15T06:18:02;18.25;;;6.18;;
68803;SDS011;55787;52.678;13.314;2024-02-15T06:20:35;19.87;;;6.43;;
68803;SDS011;55787;52.678;13.314;2024-02-15T06:23:02;17.17;;;5.93;;
68803;SDS011;55787;52.678;13.314;2024-02-15T06:25:40;19.98;;;6.32;;
68803;SDS011;55787;52.678;13.314;2024-02-15T06:28:06;19.00;;;6.10;;
68803;SDS011;55787;52.678;13.314;2024-02-15T06:30:40;18.58;;;6.25;;
68803;SDS011;55787;52.678;13.314;2024-02-15T06:33:25;18.37;;;5.80;;
68803;SDS011;55787;52.678;13.314;2024-02-15T06:36:10;21.92;;;6.63;;
68803;SDS011;55787;52.678;13.314;2024-02-15T06:38:55;18.63;;;6.32;;
68803;SDS011;55787;52.678;13.314;2024-02-15T06:41:40;18.33;;;6.05;;
68803;SDS011;55787;52.678;13.314;2024-02-15T06:44:07;18.52;;;6.00;;
68803;SDS011;55787;52.678;13.314;2024-02-15T06:46:34;19.47;;;6.17;;
68803;SDS011;55787;52.678;13.314;2024-02-15T06:49:00;17.70;;;6.00;;
68803;SDS011;55787;52.678;13.314;2024-02-15T06:51:27;19.55;;;5.78;;
68803;SDS011;55787;52.678;13.314;2024-02-15T06:53:54;18.35;;;6.10;;
68803;SDS011;55787;52.678;13.314;2024-02-15T06:56:22;17.20;;;6.18;;
68803;SDS011;55787;52.678;13.314;2024-02-15T06:58:50;18.63;;;5.93;;
68803;SDS011;55787;52.678;13.314;2024-02-15T07:01:17;16.38;;;5.20;;
68803;SDS011;55787;52.678;13.314;2024-02-15T07:03:44;18.40;;;5.93;;
68803;SDS011;55787;52.678;13.314;2024-02-15T07:06:11;17.10;;;5.90;;
68803;SDS011;55787;52.678;13.314;2024-02-15T07:08:41;18.50;;;6.47;;
68803;SDS011;55787;52.678;13.314;2024-02-15T07:11:08;19.00;;;5.97;;
68803;SDS011;55787;52.678;13.314;2024-02-15T07:13:36;18.83;;;6.03;;
68803;SDS011;55787;52.678;13.314;2024-02-15T07:16:08;17.98;;;6.25;;
68803;SDS011;55787;52.678;13.314;2024-02-15T07:18:35;19.60;;;7.22;;
68803;SDS011;55787;52.678;13.314;2024-02-15T07:21:02;16.98;;;6.15;;
68803;SDS011;55787;52.678;13.314;2024-02-15T07:23:34;17.33;;;6.03;;
68803;SDS011;55787;52.678;13.314;2024-02-15T07:26:04;15.48;;;5.57;;
68803;SDS011;55787;52.678;13.314;2024-02-15T07:28:30;17.48;;;6.18;;
68803;SDS011;55787;52.678;13.314;2024-02-15T07:30:57;18.15;;;5.75;;
68803;SDS011;55787;52.678;13.314;2024-02-15T07:33:24;19.77;;;6.18;;
68803;SDS011;55787;52.678;13.314;2024-02-15T07:35:51;17.15;;;6.40;;
68803;SDS011;55787;52.678;13.314;2024-02-15T07:38:18;16.95;;;5.97;;
68803;SDS011;55787;52.678;13.314;2024-02-15T07:40:44;16.15;;;5.95;;
68803;SDS011;55787;52.678;13.314;2024-02-15T07:43:11;17.42;;;5.80;;
68803;SDS011;55787;52.678;13.314;2024-02-15T07:45:38;16.60;;;5.85;;
68803;SDS011;55787;52.678;13.314;2024-02-15T07:48:05;17.03;;;5.83;;
68803;SDS011;55787;52.678;13.314;2024-02-15T07:50:32;15.77;;;5.70;;
68803;SDS011;55787;52.678;13.314;2024-02-15T07:52:59;18.40;;;5.45;;
68803;SDS011;55787;52.678;13.314;2024-02-15T07:55:25;15.43;;;4.90;;
68803;SDS011;55787;52.678;13.314;2024-02-15T07:57:52;17.17;;;5.45;;
68803;SDS011;55787;52.678;13.314;2024-02-15T08:00:19;14.75;;;5.22;;
68803;SDS011;55787;52.678;13.314;2024-02-15T08:02:46;15.35;;;5.35;;
68803;SDS011;55787;52.678;13.314;2024-02-15T08:05:13;18.08;;;5.85;;
68803;SDS011;55787;52.678;13.314;2024-02-15T08:07:41;16.17;;;5.75;;
68803;SDS011;55787;52.678;13.314;2024-02-15T08:10:13;16.13;;;5.38;;
68803;SDS011;55787;52.678;13.314;2024-02-15T08:12:43;15.93;;;5.40;;
68803;SDS011;55787;52.678;13.314;2024-02-15T08:15:11;15.77;;;5.47;;
68803;SDS011;55787;52.678;13.314;2024-02-15T08:17:44;15.00;;;5.68;;
68803;SDS011;55787;52.678;13.314;2024-02-15T08:20:14;14.75;;;5.22;;
68803;SDS011;55787;52.678;13.314;2024-02-15T08:22:43;15.60;;;5.45;;
68803;SDS011;55787;52.678;13.314;2024-02-15T08:25:11;15.27;;;4.57;;
68803;SDS011;55787;52.678;13.314;2024-02-15T08:27:39;14.02;;;4.70;;
68803;SDS011;55787;52.678;13.314;2024-02-15T08:30:08;13.48;;;4.70;;
68803;SDS011;55787;52.678;13.314;2024-02-15T08:32:39;14.60;;;4.43;;
68803;SDS011;55787;52.678;13.314;2024-02-15T08:35:09;12.57;;;4.50;;
68803;SDS011;55787;52.678;13.314;2024-02-15T08:37:37;14.47;;;4.90;;
68803;SDS011;55787;52.678;13.314;2024-02-15T08:40:05;16.35;;;5.00;;
68803;SDS011;55787;52.678;13.314;2024-02-15T08:42:40;14.45;;;4.50;;
68803;SDS011;55787;52.678;13.314;2024-02-15T08:45:07;14.02;;;4.63;;
68803;SDS011;55787;52.678;13.314;2024-02-15T08:47:39;14.25;;;4.50;;
68803;SDS011;55787;52.678;13.314;2024-02-15T08:50:07;13.23;;;4.40;;
68803;SDS011;55787;52.678;13.314;2024-02-15T08:52:39;12.25;;;4.32;;
68803;SDS011;55787;52.678;13.314;2024-02-15T08:55:07;15.82;;;6.43;;
68803;SDS011;55787;52.678;13.314;2024-02-15T08:57:36;13.73;;;4.30;;
68803;SDS011;55787;52.678;13.314;2024-02-15T09:00:04;11.98;;;4.35;;
68803;SDS011;55787;52.678;13.314;2024-02-15T09:02:40;13.67;;;5.03;;
68803;SDS011;55787;52.678;13.314;2024-02-15T09:05:07;14.23;;;5.22;;
68803;SDS011;55787;52.678;13.314;2024-02-15T09:07:33;13.70;;;5.15;;
68803;SDS011;55787;52.678;13.314;2024-02-15T09:10:00;13.20;;;4.72;;
68803;SDS011;55787;52.678;13.314;2024-02-15T09:12:27;12.40;;;4.65;;
68803;SDS011;55787;52.678;13.314;2024-02-15T09:14:53;13.93;;;4.10;;
68803;SDS011;55787;52.678;13.314;2024-02-15T09:17:20;11.98;;;4.15;;
68803;SDS011;55787;52.678;13.314;2024-02-15T09:19:47;13.23;;;4.50;;
68803;SDS011;55787;52.678;13.314;2024-02-15T09:22:15;14.73;;;4.78;;
68803;SDS011;55787;52.678;13.314;2024-02-15T09:24:42;13.18;;;4.43;;
68803;SDS011;55787;52.678;13.314;2024-02-15T09:27:09;14.43;;;4.70;;
68803;SDS011;55787;52.678;13.314;2024-02-15T09:29:38;12.60;;;4.68;;
68803;SDS011;55787;52.678;13.314;2024-02-15T09:32:06;14.20;;;4.53;;
68803;SDS011;55787;52.678;13.314;2024-02-15T09:34:33;12.20;;;4.38;;
68803;SDS011;55787;52.678;13.314;2024-02-15T09:37:00;11.30;;;3.85;;
68803;SDS011;55787;52.678;13.314;2024-02-15T09:39:26;11.63;;;3.50;;
68803;SDS011;55787;52.678;13.314;2024-02-15T09:41:54;12.45;;;5.10;;
68803;SDS011;55787;52.678;13.314;2024-02-15T09:44:25;13.52;;;5.25;;
68803;SDS011;55787;52.678;13.314;2024-02-15T09:47:05;13.93;;;5.18;;
68803;SDS011;55787;52.678;13.314;2024-02-15T09:49:34;15.15;;;6.78;;
68803;SDS011;55787;52.678;13.314;2024-02-15T09:52:06;13.33;;;5.27;;
68803;SDS011;55787;52.678;13.314;2024-02-15T09:54:44;11.85;;;4.10;;
68803;SDS011;55787;52.678;13.314;2024-02-15T09:57:11;11.77;;;4.22;;
68803;SDS011;55787;52.678;13.314;2024-02-15T09:59:38;11.02;;;4.32;;
68803;SDS011;55787;52.678;13.314;2024-02-15T10:02:06;10.88;;;4.28;;
68803;SDS011;55787;52.678;13.314;2024-02-15T10:04:37;11.93;;;4.20;;
68803;SDS011;55787;52.678;13.314;2024-02-15T10:07:05;10.63;;;4.00;;
68803;SDS011;55787;52.678;13.314;2024-02-15T10:09:35;10.30;;;3.40;;
68803;SDS011;55787;52.678;13.314;2024-02-15T10:12:09;11.68;;;4.40;;
68803;SDS011;55787;52.678;13.314;2024-02-15T10:14:36;10.75;;;3.83;;
68803;SDS011;55787;52.678;13.314;2024-02-15T10:17:05;11.90;;;4.33;;
68803;SDS011;55787;52.678;13.314;2024-02-15T10:19:36;10.85;;;3.67;;
68803;SDS011;55787;52.678;13.314;2024-02-15T10:22:06;10.63;;;3.97;;
68803;SDS011;55787;52.678;13.314;2024-02-15T10:24:35;10.98;;;3.47;;
68803;SDS011;55787;52.678;13.314;2024-02-15T10:27:03;10.95;;;4.93;;
68803;SDS011;55787;52.678;13.314;2024-02-15T10:29:33;11.80;;;4.20;;
68803;SDS011;55787;52.678;13.314;2024-02-15T10:32:00;9.98;;;3.35;;
68803;SDS011;55787;52.678;13.314;2024-02-15T10:34:28;8.88;;;2.97;;
68803;SDS011;55787;52.678;13.314;2024-02-15T10:37:15;9.18;;;3.10;;
68803;SDS011;55787;52.678;13.314;2024-02-15T10:39:43;10.25;;;3.40;;
68803;SDS011;55787;52.678;13.314;2024-02-15T10:42:10;11.20;;;3.77;;
68803;SDS011;55787;52.678;13.314;2024-02-15T10:44:38;11.88;;;3.60;;
68803;SDS011;55787;52.678;13.314;2024-02-15T10:47:05;11.02;;;3.58;;
68803;SDS011;55787;52.678;13.314;2024-02-15T10:49:35;10.13;;;3.50;;
68803;SDS011;55787;52.678;13.314;2024-02-15T10:52:05;12.05;;;3.70;;
68803;SDS011;55787;52.678;13.314;2024-02-15T10:54:49;9.00;;;2.93;;
68803;SDS011;55787;52.678;13.314;2024-02-15T10:57:22;9.77;;;3.45;;
68803;SDS011;55787;52.678;13.314;2024-02-15T10:59:55;11.50;;;4.40;;
68803;SDS011;55787;52.678;13.314;2024-02-15T11:05:03;9.13;;;3.08;;
68803;SDS011;55787;52.678;13.314;2024-02-15T11:07:36;10.00;;;3.23;;
68803;SDS011;55787;52.678;13.314;2024-02-15T11:10:03;10.43;;;4.03;;
68803;SDS011;55787;52.678;13.314;2024-02-15T11:12:34;8.82;;;2.60;;
68803;SDS011;55787;52.678;13.314;2024-02-15T11:15:01;10.90;;;2.80;;
68803;SDS011;55787;52.678;13.314;2024-02-15T11:20:09;8.00;;;2.20;;
68803;SDS011;55787;52.678;13.314;2024-02-15T11:22:37;7.28;;;2.17;;
68803;SDS011;55787;52.678;13.314;2024-02-15T11:25:05;8.20;;;2.40;;
68803;SDS011;55787;52.678;13.314;2024-02-15T11:27:35;7.05;;;2.00;;
68803;SDS011;55787;52.678;13.314;2024-02-15T11:30:06;7.65;;;2.10;;
68803;SDS011;55787;52.678;13.314;2024-02-15T11:35:07;8.00;;;2.50;;
68803;SDS011;55787;52.678;13.314;2024-02-15T11:37:56;7.00;;;2.08;;
68803;SDS011;55787;52.678;13.314;2024-02-15T11:40:25;8.38;;;1.83;;
68803;SDS011;55787;52.678;13.314;2024-02-15T11:42:56;6.82;;;2.03;;
68803;SDS011;55787;52.678;13.314;2024-02-15T11:45:26;7.90;;;1.70;;
68803;SDS011;55787;52.678;13.314;2024-02-15T11:48:03;6.68;;;1.38;;
68803;SDS011;55787;52.678;13.314;2024-02-15T11:50:37;8.23;;;1.88;;
68803;SDS011;55787;52.678;13.314;2024-02-15T11:53:06;7.18;;;1.90;;
68803;SDS011;55787;52.678;13.314;2024-02-15T11:55:37;7.65;;;1.77;;
68803;SDS011;55787;52.678;13.314;2024-02-15T11:58:05;6.97;;;1.77;;
68803;SDS011;55787;52.678;13.314;2024-02-15T12:00:38;7.60;;;1.67;;
68803;SDS011;55787;52.678;13.314;2024-02-15T12:03:24;7.47;;;2.10;;
68803;SDS011;55787;52.678;13.314;2024-02-15T12:06:30;7.75;;;2.03;;
68803;SDS011;55787;52.678;13.314;2024-02-15T12:09:19;7.20;;;1.88;;
68803;SDS011;55787;52.678;13.314;2024-02-15T12:12:05;8.80;;;1.85;;
68803;SDS011;55787;52.678;13.314;2024-02-15T12:14:58;8.25;;;2.17;;
68803;SDS011;55787;52.678;13.314;2024-02-15T12:17:44;7.70;;;2.08;;
68803;SDS011;55787;52.678;13.314;2024-02-15T12:20:29;8.95;;;2.20;;
68803;SDS011;55787;52.678;13.314;2024-02-15T12:22:58;9.70;;;2.13;;
68803;SDS011;55787;52.678;13.314;2024-02-15T12:25:26;9.15;;;2.10;;
68803;SDS011;55787;52.678;13.314;2024-02-15T12:27:54;8.45;;;2.33;;
68803;SDS011;55787;52.678;13.314;2024-02-15T12:30:21;8.15;;;2.08;;
68803;SDS011;55787;52.678;13.314;2024-02-15T12:32:49;9.75;;;2.47;;
68803;SDS011;55787;52.678;13.314;2024-02-15T12:35:17;11.63;;;2.00;;
68803;SDS011;55787;52.678;13.314;2024-02-15T12:37:46;7.97;;;2.17;;
68803;SDS011;55787;52.678;13.314;2024-02-15T12:40:13;8.02;;;2.10;;
68803;SDS011;55787;52.678;13.314;2024-02-15T12:42:43;9.13;;;2.13;;
68803;SDS011;55787;52.678;13.314;2024-02-15T12:45:17;8.77;;;2.22;;
68803;SDS011;55787;52.678;13.314;2024-02-15T12:50:20;7.20;;;1.70;;
68803;SDS011;55787;52.678;13.314;2024-02-15T12:52:49;8.13;;;1.92;;
68803;SDS011;55787;52.678;13.314;2024-02-15T12:57:44;8.23;;;2.03;;
68803;SDS011;55787;52.678;13.314;2024-02-15T13:00:17;7.30;;;1.90;;
68803;SDS011;55787;52.678;13.314;2024-02-15T13:02:45;8.75;;;2.40;;
68803;SDS011;55787;52.678;13.314;2024-02-15T13:05:16;7.68;;;2.28;;
68803;SDS011;55787;52.678;13.314;2024-02-15T13:07:48;10.02;;;2.20;;
68803;SDS011;55787;52.678;13.314;2024-02-15T13:10:18;7.93;;;2.10;;
68803;SDS011;55787;52.678;13.314;2024-02-15T13:12:45;8.57;;;2.00;;
68803;SDS011;55787;52.678;13.314;2024-02-15T13:15:13;8.52;;;2.10;;
68803;SDS011;55787;52.678;13.314;2024-02-15T13:17:43;8.75;;;2.00;;
68803;SDS011;55787;52.678;13.314;2024-02-15T13:20:17;7.30;;;1.88;;
68803;SDS011;55787;52.678;13.314;2024-02-15T13:22:46;7.90;;;1.70;;
68803;SDS011;55787;52.678;13.314;2024-02-15T13:25:16;7.03;;;1.92;;
68803;SDS011;55787;52.678;13.314;2024-02-15T13:27:43;7.72;;;2.10;;
68803;SDS011;55787;52.678;13.314;2024-02-15T13:30:11;7.00;;;2.00;;
68803;SDS011;55787;52.678;13.314;2024-02-15T13:32:39;7.60;;;1.75;;
68803;SDS011;55787;52.678;13.314;2024-02-15T13:35:10;7.50;;;1.80;;
68803;SDS011;55787;52.678;13.314;2024-02-15T13:37:43;6.82;;;1.83;;
68803;SDS011;55787;52.678;13.314;2024-02-15T13:40:16;6.83;;;1.80;;
68803;SDS011;55787;52.678;13.314;2024-02-15T13:42:45;6.80;;;1.90;;
68803;SDS011;55787;52.678;13.314;2024-02-15T13:45:19;8.38;;;1.38;;
68803;SDS011;55787;52.678;13.314;2024-02-15T13:47:46;6.75;;;1.80;;
68803;SDS011;55787;52.678;13.314;2024-02-15T13:50:14;6.95;;;1.75;;
68803;SDS011;55787;52.678;13.314;2024-02-15T13:52:41;6.57;;;1.77;;
68803;SDS011;55787;52.678;13.314;2024-02-15T13:55:14;6.90;;;1.65;;
68803;SDS011;55787;52.678;13.314;2024-02-15T13:57:43;6.43;;;1.60;;
68803;SDS011;55787;52.678;13.314;2024-02-15T14:00:10;6.40;;;1.30;;
68803;SDS011;55787;52.678;13.314;2024-02-15T14:02:54;7.97;;;1.67;;
68803;SDS011;55787;52.678;13.314;2024-02-15T14:05:22;7.72;;;1.40;;
68803;SDS011;55787;52.678;13.314;2024-02-15T14:07:52;6.57;;;1.30;;
68803;SDS011;55787;52.678;13.314;2024-02-15T14:10:21;6.90;;;2.17;;
68803;SDS011;55787;52.678;13.314;2024-02-15T14:12:49;8.52;;;2.70;;
68803;SDS011;55787;52.678;13.314;2024-02-15T14:15:16;7.00;;;2.17;;
68803;SDS011;55787;52.678;13.314;2024-02-15T14:17:45;8.27;;;2.20;;
68803;SDS011;55787;52.678;13.314;2024-02-15T14:20:12;7.15;;;2.08;;
68803;SDS011;55787;52.678;13.314;2024-02-15T14:22:40;7.70;;;2.00;;
68803;SDS011;55787;52.678;13.314;2024-02-15T14:25:08;6.38;;;1.60;;
68803;SDS011;55787;52.678;13.314;2024-02-15T14:27:35;5.93;;;1.50;;
68803;SDS011;55787;52.678;13.314;2024-02-15T14:30:02;7.55;;;2.00;;
68803;SDS011;55787;52.678;13.314;2024-02-15T14:32:47;6.30;;;1.45;;
68803;SDS011;55787;52.678;13.314;2024-02-15T14:35:31;7.45;;;1.52;;
68803;SDS011;55787;52.678;13.314;2024-02-15T14:38:03;7.40;;;1.60;;
68803;SDS011;55787;52.678;13.314;2024-02-15T14:43:08;7.10;;;1.50;;
68803;SDS011;55787;52.678;13.314;2024-02-15T14:45:44;6.95;;;1.58;;
68803;SDS011;55787;52.678;13.314;2024-02-15T14:48:11;6.95;;;1.70;;
68803;SDS011;55787;52.678;13.314;2024-02-15T14:50:39;7.95;;;1.70;;